Time;durP1;ratioP1;P1;durP2;ratioP2;P2;SDS_P1;SDS_P2;PMS_P1;PMS_P2;Temp;Humidity;BMP_temperature;BMP_pressure;BME280_temperature;BME280_humidity;BME280_pressure;Samples;Min_cycle;Max_cycle;Signal;HPM_P1;HPM_P2
2021/06/18 00:00:00;;;;;;;8.23;4.80;;;21.30;67.90;;;;;;5048467;28;20060;-70
2021/06/18 00:02:26;;;;;;;5.90;4.43;;;21.30;67.90;;;;;;5025113;28;20028;-71
2021/06/18 00:04:52;;;;;;;6.90;4.72;;;21.30;68.00;;;;;;5042576;28;20409;-70
2021/06/18 00:07:18;;;;;;;7.25;4.97;;;21.20;68.70;;;;;;5027953;28;20078;-70
2021/06/18 00:09:43;;;;;;;6.22;4.60;;;21.20;68.50;;;;;;5050504;28;20039;-70
2021/06/18 00:12:10;;;;;;;5.75;4.97;;;21.10;68.40;;;;;;5047356;28;20021;-70
2021/06/18 00:14:35;;;;;;;7.97;4.55;;;21.10;68.70;;;;;;5046178;28;20021;-70
2021/06/18 00:17:01;;;;;;;5.70;4.85;;;21.00;68.80;;;;;;5048508;28;20039;-70
2021/06/18 00:19:26;;;;;;;5.68;4.53;;;21.00;68.70;;;;;;5046852;28;20021;-71
2021/06/18 00:21:52;;;;;;;9.68;4.63;;;20.90;69.10;;;;;;5040243;28;20025;-69
2021/06/18 00:24:18;;;;;;;4.75;4.18;;;20.90;69.40;;;;;;5048557;28;20048;-69
2021/06/18 00:26:43;;;;;;;7.80;4.28;;;20.90;69.60;;;;;;5046623;28;20422;-70
2021/06/18 00:29:09;;;;;;;7.03;4.07;;;20.80;69.50;;;;;;5034290;28;20031;-70
2021/06/18 00:31:34;;;;;;;6.72;4.70;;;20.80;69.50;;;;;;5037449;28;20322;-72
2021/06/18 00:34:00;;;;;;;4.55;4.15;;;20.80;69.70;;;;;;5033914;28;20049;-70
2021/06/18 00:36:26;;;;;;;6.00;3.95;;;20.70;69.90;;;;;;5043587;28;20083;-70
2021/06/18 00:38:52;;;;;;;8.07;4.03;;;20.70;70.00;;;;;;5049214;28;20032;-70
2021/06/18 00:41:17;;;;;;;5.88;4.68;;;20.70;70.20;;;;;;5038877;28;20040;-70
2021/06/18 00:43:43;;;;;;;5.47;4.20;;;20.60;70.20;;;;;;5032658;28;20036;-72
2021/06/18 00:46:10;;;;;;;4.35;3.95;;;20.60;70.40;;;;;;5043058;28;20025;-70
2021/06/18 00:48:36;;;;;;;7.13;4.18;;;20.60;70.20;;;;;;5048353;28;20452;-70
2021/06/18 00:51:03;;;;;;;4.13;3.83;;;20.60;70.10;;;;;;5037668;28;20116;-70
2021/06/18 00:53:29;;;;;;;6.45;3.90;;;20.60;69.90;;;;;;5035740;28;20087;-70
2021/06/18 00:55:56;;;;;;;9.13;4.43;;;20.50;69.90;;;;;;5047471;28;20029;-70
2021/06/18 00:58:22;;;;;;;4.25;3.70;;;20.50;69.90;;;;;;5031747;28;20024;-72
2021/06/18 01:00:48;;;;;;;5.25;4.07;;;20.40;69.90;;;;;;5031735;28;20418;-72
2021/06/18 01:03:14;;;;;;;5.78;4.07;;;20.40;70.20;;;;;;5049800;28;20497;-72
2021/06/18 01:05:41;;;;;;;5.60;3.70;;;20.30;70.20;;;;;;5048090;28;20033;-71
2021/06/18 01:08:24;;;;;;;5.88;4.00;;;20.30;70.30;;;;;;5049397;28;20036;-70
2021/06/18 01:10:59;;;;;;;;;;;20.20;70.60;;;;;;5049894;28;20104;-70
2021/06/18 01:13:30;;;;;;;4.30;3.85;;;20.20;69.70;;;;;;5021377;28;19915;-70
2021/06/18 01:16:02;;;;;;;7.07;4.20;;;20.10;70.00;;;;;;5039602;28;20037;-72
2021/06/18 01:18:36;;;;;;;4.45;3.67;;;20.00;70.60;;;;;;5040054;28;20632;-70
2021/06/18 01:21:23;;;;;;;6.07;3.63;;;19.90;70.30;;;;;;5043907;28;20780;-70
2021/06/18 01:23:56;;;;;;;4.90;4.22;;;19.90;70.40;;;;;;5039638;28;20021;-72
2021/06/18 01:26:32;;;;;;;4.28;3.72;;;19.80;70.50;;;;;;5011869;28;20030;-70
2021/06/18 01:29:00;;;;;;;4.97;4.07;;;19.80;71.00;;;;;;5034381;28;20021;-70
2021/06/18 01:31:29;;;;;;;4.95;4.20;;;19.70;70.70;;;;;;5040133;28;20025;-70
2021/06/18 01:33:59;;;;;;;6.60;3.75;;;19.80;70.90;;;;;;5035780;28;20599;-70
2021/06/18 01:36:26;;;;;;;5.40;4.00;;;19.70;71.20;;;;;;5034698;28;20094;-70
2021/06/18 01:38:53;;;;;;;7.15;4.05;;;19.70;71.10;;;;;;5047736;28;20034;-70
2021/06/18 01:41:22;;;;;;;4.85;3.83;;;19.70;71.20;;;;;;5048526;28;20505;-71
2021/06/18 01:43:50;;;;;;;7.38;3.85;;;19.60;71.30;;;;;;5046290;28;20025;-71
2021/06/18 01:46:20;;;;;;;4.93;4.50;;;19.60;71.20;;;;;;5051543;28;20121;-70
2021/06/18 01:48:52;;;;;;;5.45;3.90;;;19.50;71.50;;;;;;5036857;28;20120;-70
2021/06/18 01:51:18;;;;;;;;;;;19.50;71.60;;;;;;5038980;28;20455;-71
2021/06/18 01:53:47;;;;;;;4.65;3.92;;;19.50;70.80;;;;;;5043130;28;19912;-70
2021/06/18 01:56:16;;;;;;;4.28;3.88;;;19.40;71.20;;;;;;5049928;28;20132;-73
2021/06/18 01:58:44;;;;;;;7.57;4.20;;;19.40;71.50;;;;;;5037695;28;20021;-72
2021/06/18 02:01:12;;;;;;;5.70;3.88;;;19.30;71.50;;;;;;5042182;28;20032;-70
2021/06/18 02:03:39;;;;;;;5.15;3.75;;;19.30;71.60;;;;;;5024342;28;20037;-70
2021/06/18 02:06:07;;;;;;;6.97;3.72;;;19.30;71.60;;;;;;5051868;28;20037;-70
2021/06/18 02:08:33;;;;;;;7.20;4.28;;;19.20;72.00;;;;;;5039282;28;20465;-70
2021/06/18 02:11:00;;;;;;;5.35;4.28;;;19.20;72.20;;;;;;5047978;28;20057;-70
2021/06/18 02:13:30;;;;;;;5.07;4.55;;;19.10;72.40;;;;;;5044780;28;20029;-71
2021/06/18 02:21:01;;;;;;;8.63;6.30;;;19.10;72.70;;;;;;5029796;28;20332;-70
2021/06/18 02:23:30;;;;;;;11.52;7.00;;;19.00;72.90;;;;;;5025440;28;20040;-70
2021/06/18 02:26:02;;;;;;;8.35;7.28;;;19.00;73.10;;;;;;5023542;28;20026;-70
2021/06/18 02:28:28;;;;;;;11.23;7.32;;;19.10;73.40;;;;;;5011867;28;20029;-69
2021/06/18 02:30:54;;;;;;;10.27;7.10;;;19.10;73.10;;;;;;5026998;28;20504;-70
2021/06/18 02:33:20;;;;;;;13.27;7.18;;;19.10;73.70;;;;;;5031131;28;20022;-69
2021/06/18 02:35:47;;;;;;;13.50;6.57;;;19.10;73.30;;;;;;5031592;28;20517;-70
2021/06/18 02:38:13;;;;;;;8.48;6.45;;;19.10;73.50;;;;;;5042524;28;20120;-71
2021/06/18 02:40:40;;;;;;;9.10;6.80;;;19.10;73.50;;;;;;5029747;28;20017;-71
2021/06/18 02:43:06;;;;;;;7.80;6.22;;;19.00;73.70;;;;;;5013750;28;20389;-70
2021/06/18 02:45:32;;;;;;;10.18;6.68;;;19.00;73.70;;;;;;5010984;28;20044;-69
2021/06/18 02:48:19;;;;;;;10.48;6.68;;;18.90;73.80;;;;;;5025388;28;20026;-70
2021/06/18 02:51:04;;;;;;;10.15;6.90;;;18.90;74.30;;;;;;5024257;28;20038;-70
2021/06/18 02:53:49;;;;;;;8.07;6.65;;;18.80;74.40;;;;;;5016854;28;20095;-70
2021/06/18 02:56:47;;;;;;;7.70;5.53;;;18.80;74.50;;;;;;5023450;28;20511;-70
2021/06/18 02:59:22;;;;;;;8.38;4.97;;;18.70;74.10;;;;;;4988863;28;20061;-69
2021/06/18 03:01:51;;;;;;;7.00;5.20;;;18.50;74.10;;;;;;5026190;28;20033;-70
2021/06/18 03:04:22;;;;;;;6.45;4.95;;;18.40;74.00;;;;;;5025810;28;20025;-70
2021/06/18 03:06:50;;;;;;;8.38;5.28;;;18.40;74.40;;;;;;5011734;28;20037;-72
2021/06/18 03:09:18;;;;;;;6.70;4.82;;;18.40;74.50;;;;;;5026747;28;20092;-71
2021/06/18 03:11:45;;;;;;;7.20;5.10;;;18.40;74.50;;;;;;5023035;28;20548;-70
2021/06/18 03:14:14;;;;;;;7.25;5.05;;;18.40;74.60;;;;;;5026904;28;20490;-69
2021/06/18 03:16:43;;;;;;;7.15;5.05;;;18.40;74.80;;;;;;5029535;28;20072;-71
2021/06/18 03:19:12;;;;;;;9.52;5.00;;;18.40;74.80;;;;;;5024804;28;20478;-71
2021/06/18 03:21:38;;;;;;;5.70;4.95;;;18.40;74.80;;;;;;5028614;28;20486;-70
2021/06/18 03:24:06;;;;;;;7.38;4.82;;;18.40;74.70;;;;;;5027221;28;20033;-69
2021/06/18 03:26:32;;;;;;;10.25;5.03;;;18.40;74.80;;;;;;5030650;28;20029;-70
2021/06/18 03:28:58;;;;;;;8.27;5.00;;;18.40;74.80;;;;;;5023637;28;20083;-69
2021/06/18 03:31:26;;;;;;;7.97;5.15;;;18.40;74.90;;;;;;5026306;28;20363;-71
2021/06/18 03:33:52;;;;;;;5.93;5.13;;;18.40;74.90;;;;;;5028351;28;20172;-74
2021/06/18 03:36:24;;;;;;;5.63;4.85;;;18.30;74.90;;;;;;5025860;28;20128;-70
2021/06/18 03:38:51;;;;;;;8.82;5.00;;;18.30;75.00;;;;;;5020762;28;20076;-70
2021/06/18 03:41:18;;;;;;;5.18;4.63;;;18.30;75.00;;;;;;5028331;28;20034;-72
2021/06/18 03:43:44;;;;;;;10.13;5.07;;;18.30;75.00;;;;;;5022750;28;20482;-70
2021/06/18 03:46:10;;;;;;;9.45;4.72;;;18.30;75.00;;;;;;5011172;28;20504;-69
2021/06/18 03:48:37;;;;;;;9.35;5.20;;;18.20;75.10;;;;;;5029797;28;20021;-70
2021/06/18 03:51:06;;;;;;;5.35;4.72;;;18.20;75.30;;;;;;5018185;28;20377;-71
2021/06/18 03:53:33;;;;;;;9.20;5.25;;;18.20;75.40;;;;;;5017444;28;20030;-70
2021/06/18 03:55:59;;;;;;;8.85;5.13;;;18.20;75.30;;;;;;5025597;28;20035;-70
2021/06/18 03:58:26;;;;;;;8.55;4.82;;;18.10;75.20;;;;;;5027562;28;20045;-70
2021/06/18 04:00:53;;;;;;;7.30;4.90;;;18.10;75.20;;;;;;5028697;28;20129;-71
2021/06/18 04:03:20;;;;;;;8.35;4.85;;;18.10;75.30;;;;;;5024444;28;20045;-69
2021/06/18 04:05:48;;;;;;;5.78;4.45;;;18.10;75.40;;;;;;5023454;28;20021;-70
2021/06/18 04:08:15;;;;;;;6.57;4.72;;;18.10;75.20;;;;;;5014870;28;20079;-72
2021/06/18 04:10:43;;;;;;;8.25;4.47;;;18.10;75.50;;;;;;5017838;28;20044;-69
2021/06/18 04:13:10;;;;;;;7.90;4.80;;;18.20;75.60;;;;;;5025273;28;20047;-69
2021/06/18 04:15:36;;;;;;;5.80;4.15;;;18.20;75.50;;;;;;5028765;28;20034;-73
2021/06/18 04:18:03;;;;;;;6.85;5.20;;;18.20;75.60;;;;;;5028837;28;20096;-72
2021/06/18 04:20:29;;;;;;;7.65;4.90;;;18.20;75.50;;;;;;5009860;28;20057;-67
2021/06/18 04:22:55;;;;;;;9.07;5.28;;;18.20;75.60;;;;;;5023118;28;20038;-67
2021/06/18 04:25:22;;;;;;;10.52;5.78;;;18.20;75.60;;;;;;5028163;28;20037;-70
2021/06/18 04:27:48;;;;;;;7.55;6.43;;;18.20;75.80;;;;;;5022742;28;20047;-71
2021/06/18 04:30:15;;;;;;;12.73;7.45;;;18.20;75.70;;;;;;5014611;28;20501;-69
2021/06/18 04:32:42;;;;;;;13.90;8.57;;;18.30;75.60;;;;;;5026725;28;20025;-71
2021/06/18 04:35:09;;;;;;;12.13;7.65;;;18.30;75.40;;;;;;5021750;28;20026;-70
2021/06/18 04:37:35;;;;;;;12.27;9.57;;;18.20;75.60;;;;;;5011997;28;20037;-71
2021/06/18 04:40:02;;;;;;;12.05;8.43;;;18.10;75.10;;;;;;5016490;28;20096;-70
2021/06/18 04:42:28;;;;;;;11.82;8.45;;;18.00;75.20;;;;;;5028699;28;20033;-72
2021/06/18 04:44:53;;;;;;;15.43;9.80;;;17.90;75.70;;;;;;5015186;28;20397;-72
2021/06/18 04:47:19;;;;;;;13.70;9.27;;;17.90;76.10;;;;;;5035333;28;20032;-71
2021/06/18 04:49:48;;;;;;;12.95;9.90;;;17.90;76.20;;;;;;5020489;28;20042;-72
2021/06/18 04:52:16;;;;;;;12.52;9.02;;;17.90;76.50;;;;;;4995794;28;20034;-72
2021/06/18 04:54:42;;;;;;;12.57;8.45;;;17.90;76.60;;;;;;5016708;28;20026;-72
2021/06/18 04:57:08;;;;;;;12.38;8.38;;;18.00;77.00;;;;;;5020144;28;20101;-71
2021/06/18 04:59:37;;;;;;;16.45;7.00;;;18.10;77.20;;;;;;5029034;28;20109;-70
2021/06/18 05:02:04;;;;;;;19.73;14.13;;;18.20;77.20;;;;;;5029078;28;20642;-70
2021/06/18 05:04:30;;;;;;;9.82;7.10;;;18.30;77.00;;;;;;5026804;28;20108;-70
2021/06/18 05:06:56;;;;;;;8.70;7.13;;;18.40;76.80;;;;;;5029917;28;20485;-69
2021/06/18 05:09:22;;;;;;;11.50;6.55;;;18.50;76.70;;;;;;5008418;28;20021;-69
2021/06/18 05:11:47;;;;;;;11.82;6.72;;;18.60;76.80;;;;;;5027976;28;20025;-70
2021/06/18 05:14:13;;;;;;;9.25;6.22;;;18.70;76.90;;;;;;5026068;28;20040;-71
2021/06/18 05:16:39;;;;;;;10.63;5.90;;;18.90;76.80;;;;;;5029903;28;20037;-70
2021/06/18 05:19:06;;;;;;;14.93;6.32;;;19.10;76.80;;;;;;5027901;28;20037;-67
2021/06/18 05:21:32;;;;;;;9.32;5.95;;;19.20;76.70;;;;;;5005751;28;20111;-69
2021/06/18 05:23:58;;;;;;;7.85;6.15;;;19.30;76.60;;;;;;5024850;28;20489;-69
2021/06/18 05:26:23;;;;;;;11.80;6.18;;;19.50;76.70;;;;;;5025953;28;20521;-68
2021/06/18 05:28:49;;;;;;;12.25;6.28;;;19.60;76.60;;;;;;5009430;28;20521;-68
2021/06/18 05:31:14;;;;;;;10.23;5.90;;;19.80;76.40;;;;;;5033278;28;20075;-69
2021/06/18 05:33:40;;;;;;;13.52;6.57;;;19.90;76.30;;;;;;5033244;28;20021;-70
2021/06/18 05:36:06;;;;;;;7.50;5.85;;;20.10;76.30;;;;;;5031211;28;20389;-69
2021/06/18 05:38:31;;;;;;;15.30;11.88;;;20.20;76.30;;;;;;5042614;28;20029;-70
2021/06/18 05:40:57;;;;;;;7.78;6.40;;;20.20;76.20;;;;;;5041794;28;20025;-68
2021/06/18 05:43:23;;;;;;;7.95;5.45;;;20.40;76.10;;;;;;5014182;28;20110;-70
2021/06/18 05:45:48;;;;;;;9.63;6.47;;;20.50;76.00;;;;;;5020626;28;20076;-71
2021/06/18 05:48:14;;;;;;;12.10;7.40;;;20.60;75.90;;;;;;5029795;28;20359;-67
2021/06/18 05:50:39;;;;;;;6.93;5.70;;;20.70;75.80;;;;;;5033006;28;20488;-68
2021/06/18 05:53:05;;;;;;;6.25;5.10;;;20.80;75.80;;;;;;5032441;28;20470;-70
2021/06/18 05:55:31;;;;;;;8.93;5.57;;;20.90;75.70;;;;;;5031952;28;20049;-70
2021/06/18 05:57:56;;;;;;;6.88;5.10;;;21.00;75.70;;;;;;5026244;28;20482;-70
2021/06/18 06:00:22;;;;;;;5.28;4.70;;;21.10;75.50;;;;;;5028731;28;20100;-70
2021/06/18 06:02:47;;;;;;;7.35;4.80;;;21.20;74.90;;;;;;5032847;28;20028;-70
2021/06/18 06:05:13;;;;;;;9.18;5.68;;;21.20;74.50;;;;;;5032386;28;20036;-68
2021/06/18 06:07:46;;;;;;;4.53;4.03;;;21.20;74.10;;;;;;5031764;28;20098;-71
2021/06/18 06:10:13;;;;;;;11.68;5.40;;;21.30;74.50;;;;;;5033227;28;20493;-68
2021/06/18 06:12:38;;;;;;;7.80;5.40;;;21.40;74.00;;;;;;5031775;28;20100;-70
2021/06/18 06:15:05;;;;;;;6.85;5.13;;;21.40;73.70;;;;;;5031582;28;20438;-68
2021/06/18 06:17:30;;;;;;;5.90;4.75;;;21.50;73.30;;;;;;5031212;28;20083;-71
2021/06/18 06:19:56;;;;;;;8.57;4.78;;;21.50;73.20;;;;;;5032105;28;20045;-70
2021/06/18 06:22:22;;;;;;;5.95;4.50;;;21.60;73.00;;;;;;5032187;28;20112;-70
2021/06/18 06:24:48;;;;;;;5.65;5.03;;;21.70;72.60;;;;;;5031361;28;20030;-70
2021/06/18 06:27:13;;;;;;;6.07;4.78;;;21.80;72.50;;;;;;5032650;28;20025;-72
2021/06/18 06:29:39;;;;;;;5.07;4.68;;;21.90;72.30;;;;;;5014866;28;20496;-69
2021/06/18 06:32:05;;;;;;;9.38;5.50;;;22.00;72.20;;;;;;5031849;28;20029;-69
2021/06/18 06:34:31;;;;;;;8.98;4.90;;;22.20;71.80;;;;;;5030841;28;20021;-69
2021/06/18 06:36:57;;;;;;;9.77;4.25;;;22.30;71.20;;;;;;5032385;28;20028;-69
2021/06/18 06:39:23;;;;;;;7.55;4.32;;;22.50;70.60;;;;;;5032164;28;20021;-69
2021/06/18 06:41:48;;;;;;;10.82;4.53;;;22.50;70.40;;;;;;5028320;28;20033;-69
2021/06/18 06:44:14;;;;;;;7.03;4.70;;;22.70;70.50;;;;;;5030246;28;20470;-69
2021/06/18 06:46:40;;;;;;;9.95;5.00;;;22.80;69.80;;;;;;5031849;28;20040;-69
2021/06/18 06:49:05;;;;;;;8.07;4.78;;;22.90;69.70;;;;;;5031874;28;20528;-69
2021/06/18 06:51:31;;;;;;;5.63;4.38;;;23.10;69.00;;;;;;5031613;28;20378;-68
2021/06/18 06:53:57;;;;;;;10.13;4.82;;;23.20;68.80;;;;;;5031270;28;20021;-68
2021/06/18 06:56:22;;;;;;;6.18;4.55;;;23.40;68.70;;;;;;5031550;28;20489;-70
2021/06/18 06:58:48;;;;;;;10.35;4.53;;;23.50;68.50;;;;;;5032010;28;20485;-69
2021/06/18 07:01:14;;;;;;;6.38;5.00;;;23.60;68.50;;;;;;5031084;28;20100;-68
2021/06/18 07:03:40;;;;;;;10.75;5.20;;;23.80;68.30;;;;;;5032117;28;20029;-69
2021/06/18 07:06:07;;;;;;;5.75;5.07;;;24.00;68.40;;;;;;5012677;28;20021;-69
2021/06/18 07:08:33;;;;;;;8.60;5.28;;;24.10;67.90;;;;;;5031926;28;20041;-71
2021/06/18 07:10:59;;;;;;;7.13;5.28;;;24.30;67.80;;;;;;5013811;28;20025;-70
2021/06/18 07:13:24;;;;;;;6.57;5.07;;;24.50;67.10;;;;;;5014057;28;20052;-68
2021/06/18 07:15:52;;;;;;;13.85;5.25;;;24.70;66.90;;;;;;5030545;28;20397;-69
2021/06/18 07:18:17;;;;;;;8.98;4.88;;;24.80;66.90;;;;;;5030700;28;20025;-70
2021/06/18 07:20:43;;;;;;;8.20;5.70;;;25.10;66.70;;;;;;5031046;28;20040;-72
2021/06/18 07:23:09;;;;;;;8.57;5.55;;;25.20;65.80;;;;;;5031595;28;20037;-69
2021/06/18 07:25:36;;;;;;;7.00;4.47;;;25.40;65.60;;;;;;5030330;28;20063;-69
2021/06/18 07:28:03;;;;;;;7.55;5.15;;;25.50;65.50;;;;;;5031232;28;20478;-70
2021/06/18 07:30:29;;;;;;;5.93;5.25;;;25.80;65.40;;;;;;5013088;28;20413;-69
2021/06/18 07:32:54;;;;;;;6.70;4.95;;;26.10;65.50;;;;;;5030840;28;20029;-69
2021/06/18 07:35:20;;;;;;;6.47;4.97;;;26.50;65.30;;;;;;5012232;28;20112;-70
2021/06/18 07:37:46;;;;;;;9.25;5.03;;;26.90;64.70;;;;;;5030881;28;20022;-71
2021/06/18 07:40:13;;;;;;;6.13;4.47;;;27.20;64.00;;;;;;5031111;28;20112;-69
2021/06/18 07:42:39;;;;;;;6.03;4.50;;;27.40;63.30;;;;;;5031071;28;20029;-69
2021/06/18 07:45:05;;;;;;;6.85;5.03;;;27.60;62.60;;;;;;5029973;28;20099;-69
2021/06/18 07:47:31;;;;;;;8.55;5.05;;;27.70;61.90;;;;;;5030289;28;20037;-69
2021/06/18 07:49:58;;;;;;;6.43;4.57;;;27.80;61.30;;;;;;5030690;28;20037;-69
2021/06/18 07:52:24;;;;;;;7.22;4.90;;;27.80;60.90;;;;;;5013200;28;20037;-69
2021/06/18 07:54:53;;;;;;;6.22;4.90;;;27.80;60.70;;;;;;5029889;28;20025;-69
2021/06/18 07:57:19;;;;;;;6.28;4.70;;;28.10;60.80;;;;;;5030669;28;20028;-69
2021/06/18 07:59:44;;;;;;;7.28;4.90;;;28.40;60.10;;;;;;5030671;28;20045;-69
2021/06/18 08:02:10;;;;;;;8.55;5.30;;;28.60;59.40;;;;;;5030743;28;20029;-70
2021/06/18 08:04:35;;;;;;;5.65;4.88;;;28.70;58.90;;;;;;5029916;28;20060;-69
2021/06/18 08:07:01;;;;;;;5.78;4.90;;;29.00;59.20;;;;;;5030610;28;20029;-70
2021/06/18 08:09:26;;;;;;;6.07;4.57;;;29.30;58.10;;;;;;5030949;28;20076;-69
2021/06/18 08:11:52;;;;;;;8.95;5.35;;;29.40;57.80;;;;;;5030266;28;20029;-69
2021/06/18 08:14:18;;;;;;;8.40;4.93;;;29.60;57.00;;;;;;5012167;28;20021;-69
2021/06/18 08:16:44;;;;;;;6.30;4.90;;;29.80;57.50;;;;;;5040698;22;20034;-70
2021/06/18 08:19:10;;;;;;;6.38;4.60;;;30.10;56.70;;;;;;5040780;28;20475;-71
2021/06/18 08:21:36;;;;;;;11.40;5.45;;;30.10;56.30;;;;;;5041784;28;20021;-71
2021/06/18 08:24:02;;;;;;;33.65;26.20;;;30.20;56.30;;;;;;5023570;28;20013;-70
2021/06/18 08:26:27;;;;;;;6.55;5.07;;;30.50;56.60;;;;;;5041563;28;20460;-70
2021/06/18 08:28:53;;;;;;;9.95;5.00;;;30.90;56.70;;;;;;5050458;28;20024;-71
2021/06/18 08:31:19;;;;;;;5.65;4.78;;;31.20;55.70;;;;;;5032046;28;20021;-71
2021/06/18 08:33:44;;;;;;;9.25;5.45;;;31.60;55.20;;;;;;5032271;28;20446;-70
2021/06/18 08:36:10;;;;;;;7.45;5.35;;;31.90;54.70;;;;;;5048753;28;20014;-69
2021/06/18 08:38:35;;;;;;;8.63;5.10;;;32.50;54.20;;;;;;5031559;28;20376;-70
2021/06/18 08:41:05;;;;;;;10.07;5.40;;;33.10;53.80;;;;;;5031435;28;20022;-70
2021/06/18 08:43:32;;;;;;;6.60;4.78;;;33.70;52.00;;;;;;5050378;28;20020;-71
2021/06/18 08:46:00;;;;;;;6.03;4.20;;;34.40;51.00;;;;;;5035237;28;20467;-70
2021/06/18 08:48:30;;;;;;;5.80;4.32;;;34.90;50.50;;;;;;5035683;28;20503;-71
2021/06/18 08:50:58;;;;;;;8.13;4.90;;;35.40;50.00;;;;;;5036052;28;20450;-71
2021/06/18 08:53:25;;;;;;;8.77;4.63;;;35.80;48.50;;;;;;5036639;28;20031;-71
2021/06/18 08:55:53;;;;;;;7.40;5.00;;;36.10;48.00;;;;;;5035103;28;20033;-72
2021/06/18 08:58:19;;;;;;;7.95;4.80;;;36.50;47.90;;;;;;5053288;28;20035;-72
2021/06/18 09:00:45;;;;;;;9.20;4.68;;;36.90;47.00;;;;;;5036253;28;20025;-72
2021/06/18 09:03:47;;;;;;;9.00;4.43;;;37.30;45.80;;;;;;5054194;28;20369;-71
2021/06/18 09:06:23;;;;;;;6.78;4.50;;;37.90;45.50;;;;;;4962887;28;20110;-72
2021/06/18 09:09:22;;;;;;;6.55;4.53;;;38.30;44.80;;;;;;5014505;28;20405;-72
2021/06/18 09:11:49;;;;;;;6.03;4.43;;;38.60;43.90;;;;;;5054274;28;20025;-72
2021/06/18 09:14:35;;;;;;;7.90;4.70;;;38.90;42.90;;;;;;5052892;28;20091;-70
2021/06/18 09:17:19;;;;;;;8.25;4.80;;;39.30;41.50;;;;;;5038224;28;20079;-71
2021/06/18 09:19:51;;;;;;;7.03;4.05;;;39.60;41.90;;;;;;5046592;28;20021;-73
2021/06/18 09:22:38;;;;;;;4.68;4.03;;;40.00;41.20;;;;;;5053802;28;20119;-72
2021/06/18 09:25:13;;;;;;;12.23;4.82;;;40.40;41.40;;;;;;5052280;28;20029;-73
2021/06/18 09:27:51;;;;;;;8.43;4.72;;;40.70;41.00;;;;;;5030485;28;20083;-73
2021/06/18 09:30:21;;;;;;;7.97;4.00;;;41.00;40.00;;;;;;5035671;28;20397;-73
2021/06/18 09:32:54;;;;;;;;;;;41.20;39.50;;;;;;5053870;28;20025;-72
2021/06/18 09:35:20;;;;;;;5.13;3.53;;;41.40;41.00;;;;;;5045586;28;20318;-73
2021/06/18 09:37:56;;;;;;;4.32;3.75;;;41.40;39.20;;;;;;5038888;28;20041;-72
2021/06/18 09:40:23;;;;;;;4.57;3.78;;;41.50;38.20;;;;;;5033252;28;20036;-71
2021/06/18 09:43:00;;;;;;;6.10;2.75;;;41.70;38.40;;;;;;5035532;28;20032;-74
2021/06/18 09:45:35;;;;;;;4.85;3.58;;;41.80;35.60;;;;;;5034460;28;20110;-73
2021/06/18 09:48:15;;;;;;;4.40;2.90;;;41.70;35.30;;;;;;5023274;28;20032;-73
2021/06/18 09:50:42;;;;;;;;;;;41.50;36.20;;;;;;5033736;28;20052;-73
2021/06/18 09:53:23;;;;;;;6.32;2.80;;;41.40;38.00;;;;;;5015460;28;20025;-72
2021/06/18 09:56:08;;;;;;;4.82;3.08;;;41.10;37.10;;;;;;5026900;28;20025;-74
2021/06/18 09:58:38;;;;;;;3.72;3.17;;;41.10;37.50;;;;;;5053109;28;20025;-74
2021/06/18 10:01:18;;;;;;;5.35;3.33;;;41.10;36.70;;;;;;5052650;28;20172;-74
2021/06/18 10:03:59;;;;;;;;;;;40.90;36.60;;;;;;5035621;28;20064;-74
2021/06/18 10:06:25;;;;;;;3.97;3.40;;;40.70;39.00;;;;;;5052818;28;19995;-73
2021/06/18 10:08:51;;;;;;;3.40;3.10;;;40.60;38.00;;;;;;5052988;28;20557;-73
2021/06/18 10:11:18;;;;;;;4.22;2.92;;;40.50;37.80;;;;;;5052945;28;20021;-74
2021/06/18 10:13:44;;;;;;;5.72;3.45;;;40.30;37.60;;;;;;5053153;28;20061;-74
2021/06/18 10:16:10;;;;;;;3.90;3.53;;;40.20;37.50;;;;;;5043874;28;20060;-74
2021/06/18 10:18:35;;;;;;;38.40;34.80;;;40.00;36.40;;;;;;5032765;28;20041;-73
2021/06/18 10:21:04;;;;;;;5.47;4.55;;;39.40;37.20;;;;;;5049105;28;20036;-73
2021/06/18 10:23:30;;;;;;;7.00;2.95;;;39.20;37.50;;;;;;5053011;28;20051;-74
2021/06/18 10:26:01;;;;;;;8.40;3.47;;;39.10;38.30;;;;;;5050884;28;20086;-73
2021/06/18 10:28:34;;;;;;;3.95;3.00;;;39.10;39.10;;;;;;5046460;28;20040;-73
2021/06/18 10:31:02;;;;;;;6.75;3.28;;;39.10;38.30;;;;;;5034429;28;20025;-74
2021/06/18 10:33:28;;;;;;;4.47;3.30;;;38.90;37.90;;;;;;5052639;28;20154;-73
2021/06/18 10:36:04;;;;;;;4.38;3.40;;;38.70;37.90;;;;;;5049005;28;20092;-74
2021/06/18 10:38:47;;;;;;;5.93;3.22;;;38.50;37.90;;;;;;5039513;28;20020;-73
2021/06/18 10:41:13;;;;;;;4.05;3.00;;;38.20;38.00;;;;;;5029354;28;20021;-71
2021/06/18 10:43:39;;;;;;;4.47;3.20;;;38.10;38.00;;;;;;5052758;28;20032;-73
2021/06/18 10:46:14;;;;;;;4.40;3.10;;;37.80;38.20;;;;;;5033283;28;20040;-71
2021/06/18 10:48:51;;;;;;;5.75;3.30;;;37.60;38.50;;;;;;5034986;28;20044;-71
2021/06/18 10:51:29;;;;;;;5.60;2.97;;;37.50;38.90;;;;;;5032397;28;20148;-72
2021/06/18 10:54:29;;;;;;;4.47;3.05;;;37.30;39.10;;;;;;5013757;28;20025;-72
2021/06/18 10:56:57;;;;;;;4.40;2.90;;;37.20;38.80;;;;;;5018516;28;20036;-72
2021/06/18 10:59:26;;;;;;;9.35;2.92;;;37.10;40.00;;;;;;5034507;28;20179;-72
2021/06/18 11:01:52;;;;;;;3.92;2.88;;;36.80;38.80;;;;;;5034052;28;20115;-71
2021/06/18 11:04:34;;;;;;;3.50;2.88;;;36.50;39.10;;;;;;5050179;28;20489;-72
2021/06/18 11:07:00;;;;;;;5.90;2.78;;;36.40;39.10;;;;;;5033129;28;20924;-72
2021/06/18 11:09:42;;;;;;;2.90;2.70;;;36.20;38.90;;;;;;5033800;28;20117;-71
2021/06/18 11:12:23;;;;;;;2.90;2.35;;;36.00;38.90;;;;;;5051670;28;20477;-71
2021/06/18 11:14:59;;;;;;;5.22;2.80;;;35.80;39.50;;;;;;5045134;28;20523;-71
2021/06/18 11:18:01;;;;;;;3.35;2.20;;;35.70;39.40;;;;;;5042340;28;20045;-72
2021/06/18 11:20:33;;;;;;;5.03;2.25;;;35.60;39.40;;;;;;5033114;28;20037;-71
2021/06/18 11:23:08;;;;;;;4.68;2.45;;;35.50;39.00;;;;;;5037594;28;20035;-71
2021/06/18 11:25:40;;;;;;;5.22;2.42;;;35.50;39.20;;;;;;5050376;28;20040;-72
2021/06/18 11:31:02;;;;;;;5.05;2.30;;;35.40;39.60;;;;;;5050603;28;20025;-71
2021/06/18 11:33:45;;;;;;;6.75;2.30;;;35.40;39.90;;;;;;5040384;28;20104;-71
2021/06/18 11:36:23;;;;;;;2.92;2.22;;;35.40;39.20;;;;;;5032373;28;20033;-71
2021/06/18 11:38:56;;;;;;;8.10;3.05;;;35.30;39.20;;;;;;5050973;28;20025;-72
2021/06/18 11:41:27;;;;;;;3.08;2.40;;;35.30;39.30;;;;;;5051124;28;20416;-71
2021/06/18 11:43:58;;;;;;;4.30;2.33;;;35.10;38.80;;;;;;5032078;28;20029;-71
2021/06/18 11:46:26;;;;;;;6.28;2.97;;;34.90;38.30;;;;;;5033099;28;20029;-72
2021/06/18 11:48:54;;;;;;;6.78;2.58;;;34.70;38.80;;;;;;5021692;28;20075;-72
2021/06/18 11:51:30;;;;;;;4.28;2.72;;;34.60;39.10;;;;;;5032289;28;20547;-72
2021/06/18 11:53:57;;;;;;;3.08;2.28;;;34.50;39.10;;;;;;5032088;28;20044;-71
2021/06/18 11:56:27;;;;;;;5.20;2.63;;;34.50;39.40;;;;;;5033121;28;20108;-71
2021/06/18 11:58:53;;;;;;;4.30;2.85;;;34.40;38.40;;;;;;5051244;28;20020;-72
2021/06/18 12:01:25;;;;;;;4.60;2.65;;;34.40;38.40;;;;;;5032601;28;20389;-71
2021/06/18 12:03:53;;;;;;;3.78;2.65;;;34.30;37.90;;;;;;5032249;28;20362;-71
2021/06/18 12:06:24;;;;;;;2.88;2.50;;;34.30;37.40;;;;;;5028320;28;20029;-72
2021/06/18 12:09:04;;;;;;;7.30;3.27;;;34.30;38.50;;;;;;5040842;28;20037;-72
2021/06/18 12:11:32;;;;;;;7.47;2.80;;;34.40;39.30;;;;;;5049714;28;20272;-71
2021/06/18 12:13:58;;;;;;;6.95;3.63;;;34.60;39.30;;;;;;5049853;28;20536;-72
2021/06/18 12:16:32;;;;;;;5.50;2.95;;;34.70;39.10;;;;;;5049879;28;20029;-71
2021/06/18 12:19:20;;;;;;;3.13;2.80;;;34.80;38.90;;;;;;5030868;28;20029;-71
2021/06/18 12:22:04;;;;;;;3.10;2.80;;;34.80;39.00;;;;;;5012782;28;20388;-71
2021/06/18 12:24:39;;;;;;;4.20;2.55;;;34.70;39.60;;;;;;5031706;28;20039;-72
2021/06/18 12:27:12;;;;;;;6.03;2.60;;;34.70;39.80;;;;;;5032084;28;20033;-71
2021/06/18 12:29:47;;;;;;;5.65;2.67;;;34.70;39.90;;;;;;5050722;28;20021;-71
2021/06/18 12:32:14;;;;;;;4.03;2.95;;;34.70;39.50;;;;;;5050715;28;20028;-71
2021/06/18 12:35:01;;;;;;;6.40;3.13;;;34.60;39.30;;;;;;5031494;28;20039;-72
2021/06/18 12:37:33;;;;;;;5.35;2.80;;;34.60;39.30;;;;;;5032485;28;20083;-71
2021/06/18 12:40:29;;;;;;;5.25;2.67;;;34.60;39.40;;;;;;5030091;28;20103;-71
2021/06/18 12:42:56;;;;;;;5.57;2.75;;;34.70;38.70;;;;;;5023689;28;20025;-72
2021/06/18 12:45:29;;;;;;;4.35;2.75;;;34.70;38.30;;;;;;5049022;28;20029;-72
2021/06/18 12:48:16;;;;;;;6.35;2.85;;;34.60;38.60;;;;;;5039164;28;20080;-72
2021/06/18 12:50:44;;;;;;;3.30;2.88;;;34.60;38.90;;;;;;5022296;28;20021;-72
2021/06/18 12:53:12;;;;;;;4.55;2.75;;;34.50;38.40;;;;;;5050276;28;20358;-72
2021/06/18 12:55:45;;;;;;;3.42;2.70;;;34.40;39.00;;;;;;5049194;28;20464;-72
2021/06/18 12:58:12;;;;;;;4.68;2.72;;;34.40;39.00;;;;;;5049866;28;20025;-72
2021/06/18 13:00:50;;;;;;;3.88;2.58;;;34.30;39.20;;;;;;5050165;28;20052;-72
2021/06/18 13:03:47;;;;;;;3.80;2.42;;;34.30;39.20;;;;;;5050214;28;20480;-72